Strona główna
METAR-TAF:

METAR-TAF

Lotnisko :

Port lotniczy Teheran-Mehrabad

Teheran, Iran

Szerokość geograficzna: 35-41N, Długość geograficzna: 051-21E, wysokość: 1204 m

Aktualna obserwacja pogody

Raport powstał 22 minut temu, godzina 19:00 UTC
Wiatr 6 kt od południowy zachód
Temperatura 4°C
Wilgotność 87%
Ciśnienie 1013 hPa
Widzialność: 8000 m
Mało chmury na wysokości 2500 ft
Przerywane chmury na wysokości 10000 ft

METAR: OIII 201900Z 23006KT 8000 FEW025 BKN100 04/02 Q1013 A2992

czas: 22:52 (19:22 UTC)

Prognoza

Raport powstał 1 godzina i 52 minut temu, godzina 17:30 UTC
Prognoza ważna od 20 godzina 18 UTC do 21 godzina 24 UTC
Wiatr 8 kt od zachód
Widzialność: 7000 m
Mało chmury na wysokości 2500 ft
Rozproszone chmury na wysokości 10000 ft

TAF: OIII 201730Z 2018/2124 28008KT 7000 FEW025 SCT100

Obserwacja i prognoza pogody dla ponad 4000 lotnisk (raport METAR i TAF).

Dostępne stacje oznaczono żółtymi i czerwonymi punktami na mapie.

Najedź kursorem aby zobaczyć nazwę stacji.

Kliknij aby zobaczyć obserwacje i prognozy pogody.

Aby zmienić mapę: kliknij na zielony przycisk z czarnym krzyżykiem, aby powiększyć; na zielony przycisk z myślnikiem, aby pomniejszyć; na zielone strzałki, aby przejść do map sąsiednich.


METAR-TAF: